createdAt,value
2019-03-21T00:01:14.996Z,7.49
2019-03-21T00:03:42.206Z,7.47
2019-03-21T00:06:11.206Z,7.50
2019-03-21T00:08:38.539Z,7.58
2019-03-21T00:11:41.829Z,7.54
2019-03-21T00:14:20.618Z,7.63
2019-03-21T00:16:47.848Z,7.71
2019-03-21T00:19:15.126Z,7.81
2019-03-21T00:21:42.442Z,7.76
2019-03-21T00:24:09.653Z,7.70
2019-03-21T00:26:36.764Z,7.73
2019-03-21T00:29:03.970Z,7.75
2019-03-21T00:31:31.193Z,7.70
2019-03-21T00:33:58.511Z,7.58
2019-03-21T00:36:25.835Z,7.65
2019-03-21T00:38:53.232Z,7.75
2019-03-21T00:41:20.434Z,7.77
2019-03-21T00:43:47.744Z,7.78
2019-03-21T00:46:15.068Z,7.81
2019-03-21T00:48:42.350Z,7.84
2019-03-21T00:51:09.673Z,8.19
2019-03-21T00:53:36.968Z,8.03
2019-03-21T00:56:04.246Z,7.99
2019-03-21T00:58:31.342Z,7.86
2019-03-21T01:00:59.335Z,7.85
2019-03-21T01:03:26.535Z,7.84
2019-03-21T01:05:53.856Z,7.96
2019-03-21T01:08:21.110Z,8.27
2019-03-21T01:10:49.157Z,8.28
2019-03-21T01:13:16.463Z,8.20
2019-03-21T01:15:43.681Z,8.10
2019-03-21T01:18:11.064Z,8.07
2019-03-21T01:20:38.381Z,8.09
2019-03-21T01:23:05.781Z,7.88
2019-03-21T01:25:36.279Z,7.64
2019-03-21T01:28:03.619Z,7.61
2019-03-21T01:30:30.785Z,7.77
2019-03-21T01:33:00.983Z,7.76
2019-03-21T01:35:28.318Z,7.74
2019-03-21T01:37:55.520Z,7.68
2019-03-21T01:40:23.778Z,7.76
2019-03-21T01:42:51.129Z,7.81
2019-03-21T01:45:20.126Z,7.91
2019-03-21T01:47:47.566Z,7.97
2019-03-21T01:50:15.710Z,8.45
2019-03-21T01:52:42.900Z,8.30
2019-03-21T01:55:11.458Z,8.21
2019-03-21T01:57:38.978Z,8.16
2019-03-21T02:00:09.478Z,8.13
2019-03-21T02:02:36.688Z,8.33
2019-03-21T02:05:04.375Z,8.32
2019-03-21T02:07:31.596Z,8.19
2019-03-21T02:09:58.786Z,8.06
2019-03-21T02:12:26.101Z,8.03
2019-03-21T02:14:53.302Z,8.02
2019-03-21T02:17:21.171Z,7.99
2019-03-21T02:19:48.357Z,7.92
2019-03-21T02:22:15.684Z,7.97
2019-03-21T02:24:42.967Z,8.04
2019-03-21T02:27:10.286Z,8.28
2019-03-21T02:29:37.495Z,8.19
2019-03-21T02:32:04.723Z,8.15
2019-03-21T02:34:32.028Z,7.89
2019-03-21T02:36:59.378Z,7.81
2019-03-21T02:39:26.675Z,7.76
2019-03-21T02:41:54.018Z,7.79
2019-03-21T02:44:21.665Z,7.79
2019-03-21T02:46:48.986Z,7.88
2019-03-21T02:49:16.417Z,7.87
2019-03-21T02:51:43.743Z,7.84
2019-03-21T02:54:11.030Z,7.89
2019-03-21T02:56:38.380Z,7.83
2019-03-21T02:59:05.668Z,7.81
2019-03-21T03:01:33.002Z,7.83
2019-03-21T03:04:00.704Z,7.84
2019-03-21T03:06:30.077Z,8.09
2019-03-21T03:08:57.534Z,8.15
2019-03-21T03:11:24.878Z,7.88
2019-03-21T03:13:52.245Z,7.86
2019-03-21T03:16:19.722Z,7.94
2019-03-21T03:18:46.918Z,7.71
2019-03-21T03:21:14.221Z,7.68
2019-03-21T03:23:41.447Z,7.86
2019-03-21T03:26:08.733Z,7.73
2019-03-21T03:28:36.302Z,7.68
2019-03-21T03:31:03.648Z,7.71
2019-03-21T03:33:30.955Z,7.73
2019-03-21T03:35:58.254Z,7.80
2019-03-21T03:38:25.471Z,7.86
2019-03-21T03:40:55.114Z,7.90
2019-03-21T03:43:22.437Z,7.92
2019-03-21T03:45:49.741Z,8.11
2019-03-21T03:48:19.753Z,7.99
2019-03-21T03:50:46.313Z,8.00
2019-03-21T03:53:13.636Z,8.01
2019-03-21T03:55:40.942Z,8.00
2019-03-21T03:58:10.275Z,8.16
2019-03-21T04:00:37.931Z,8.09
2019-03-21T04:03:05.266Z,8.08
2019-03-21T04:05:32.449Z,8.01
2019-03-21T04:07:59.778Z,8.08
2019-03-21T04:10:29.293Z,8.03
2019-03-21T04:12:56.628Z,7.96
2019-03-21T04:15:23.924Z,7.93
2019-03-21T04:17:51.244Z,7.98
2019-03-21T04:20:19.699Z,7.98
2019-03-21T04:22:47.142Z,7.97
2019-03-21T04:25:17.732Z,8.10
2019-03-21T04:27:45.056Z,8.28
2019-03-21T04:30:12.966Z,8.36
2019-03-21T04:32:40.395Z,8.35
2019-03-21T04:35:09.082Z,8.21
2019-03-21T04:37:36.309Z,8.14
2019-03-21T04:40:03.789Z,8.16
2019-03-21T04:42:31.016Z,8.14
2019-03-21T04:44:58.239Z,8.16
2019-03-21T04:47:25.579Z,8.12
2019-03-21T04:49:52.787Z,8.14
2019-03-21T04:52:20.005Z,8.14
2019-03-21T04:54:47.230Z,8.11
2019-03-21T04:57:14.451Z,8.10
2019-03-21T04:59:41.686Z,8.05
2019-03-21T05:02:08.880Z,8.05
2019-03-21T05:04:36.109Z,8.08
2019-03-21T05:07:03.683Z,8.08
2019-03-21T05:09:30.898Z,8.18
2019-03-21T05:11:58.227Z,8.17
2019-03-21T05:14:25.534Z,8.33
2019-03-21T05:16:52.868Z,8.12
2019-03-21T05:19:20.189Z,8.14
2019-03-21T05:21:51.471Z,8.42
2019-03-21T05:24:18.690Z,8.31
2019-03-21T05:26:45.982Z,8.16
2019-03-21T05:29:13.462Z,8.11
2019-03-21T05:31:40.766Z,8.12
2019-03-21T05:34:07.985Z,8.11
2019-03-21T05:36:35.087Z,8.43
2019-03-21T05:39:04.299Z,8.41
2019-03-21T05:41:31.408Z,8.51
2019-03-21T05:44:02.889Z,8.31
2019-03-21T05:46:30.572Z,8.31
2019-03-21T05:48:57.816Z,8.33
2019-03-21T05:51:25.124Z,8.47
2019-03-21T05:53:52.700Z,8.39
2019-03-21T05:56:19.966Z,8.43
2019-03-21T05:58:47.288Z,8.44
2019-03-21T06:01:14.601Z,8.46
2019-03-21T06:03:49.007Z,8.49
2019-03-21T06:06:23.727Z,8.55
2019-03-21T06:08:50.964Z,8.58
2019-03-21T06:11:18.269Z,8.66
2019-03-21T06:13:45.491Z,8.70
2019-03-21T06:16:13.128Z,8.72
2019-03-21T06:18:52.003Z,8.80
2019-03-21T06:21:29.545Z,8.80
2019-03-21T06:24:23.739Z,8.85
2019-03-21T06:27:15.064Z,9.13
2019-03-21T06:29:42.766Z,9.04
2019-03-21T06:32:10.087Z,9.09
2019-03-21T06:34:37.312Z,9.24
2019-03-21T06:37:04.519Z,9.19
2019-03-21T06:39:31.752Z,9.20
2019-03-21T06:41:59.461Z,9.24
2019-03-21T06:44:26.945Z,9.41
2019-03-21T06:46:54.264Z,9.62
2019-03-21T06:49:21.604Z,9.71
2019-03-21T06:51:48.943Z,9.65
2019-03-21T06:54:16.282Z,9.51
2019-03-21T06:56:46.673Z,9.66
2019-03-21T06:59:14.252Z,9.62
2019-03-21T07:01:41.443Z,9.58
2019-03-21T07:04:08.892Z,9.45
2019-03-21T07:06:36.274Z,9.57
2019-03-21T07:09:25.342Z,9.64
2019-03-21T07:11:52.526Z,9.75
2019-03-21T07:14:19.854Z,9.83
2019-03-21T07:16:47.149Z,9.66
2019-03-21T07:19:14.530Z,9.61
2019-03-21T07:21:41.824Z,9.64
2019-03-21T07:24:09.149Z,9.63
2019-03-21T07:26:36.356Z,9.43
2019-03-21T07:29:03.778Z,9.59
2019-03-21T07:31:31.079Z,9.78
2019-03-21T07:33:58.293Z,9.93
2019-03-21T07:36:26.356Z,9.89
2019-03-21T07:38:53.603Z,10.23
2019-03-21T07:41:20.906Z,10.44
2019-03-21T07:43:48.127Z,10.72
2019-03-21T07:46:15.310Z,10.72
2019-03-21T07:48:42.523Z,10.82
2019-03-21T07:51:09.825Z,11.18
2019-03-21T07:53:37.021Z,11.39
2019-03-21T07:56:04.525Z,11.84
2019-03-21T07:58:31.844Z,12.85
2019-03-21T08:00:59.171Z,14.80
2019-03-21T08:03:26.471Z,16.40
2019-03-21T08:05:53.815Z,16.48
2019-03-21T08:08:21.002Z,17.10
2019-03-21T08:10:48.242Z,17.89
2019-03-21T08:13:15.479Z,18.72
2019-03-21T08:15:42.703Z,18.37
2019-03-21T08:18:09.910Z,20.13
2019-03-21T08:20:37.125Z,20.76
2019-03-21T08:23:04.328Z,22.26
2019-03-21T08:25:31.530Z,23.62
2019-03-21T08:27:58.726Z,22.76
2019-03-21T08:30:32.055Z,22.13
2019-03-21T08:32:59.158Z,23.27
2019-03-21T08:35:26.482Z,21.99
2019-03-21T08:37:53.684Z,21.82
2019-03-21T08:40:21.015Z,22.48
2019-03-21T08:42:48.313Z,23.03
2019-03-21T08:45:35.163Z,20.15
2019-03-21T08:48:02.463Z,20.64
2019-03-21T08:50:29.677Z,22.06
2019-03-21T08:52:56.979Z,21.35
2019-03-21T08:55:24.604Z,22.96
2019-03-21T08:57:51.921Z,25.19
2019-03-21T09:00:19.677Z,24.77
2019-03-21T09:02:47.031Z,23.25
2019-03-21T09:05:14.406Z,23.14
2019-03-21T09:07:41.610Z,23.24
2019-03-21T09:10:09.313Z,24.51
2019-03-21T09:12:36.628Z,23.79
2019-03-21T09:15:04.290Z,21.89
2019-03-21T09:17:31.409Z,22.31
2019-03-21T09:19:58.607Z,22.84
2019-03-21T09:22:27.507Z,23.99
2019-03-21T09:24:54.709Z,24.34
2019-03-21T09:27:21.938Z,24.80
2019-03-21T09:29:53.704Z,24.46
2019-03-21T09:32:18.436Z,24.51
2019-03-21T09:34:45.623Z,23.47
2019-03-21T09:37:12.863Z,24.37
2019-03-21T09:39:40.055Z,24.26
2019-03-21T09:42:07.388Z,24.48
2019-03-21T09:44:34.494Z,23.68
2019-03-21T09:47:01.614Z,22.78
2019-03-21T09:49:28.823Z,23.57
2019-03-21T09:51:56.149Z,24.53
2019-03-21T09:54:23.346Z,24.16
2019-03-21T09:56:50.689Z,24.16
2019-03-21T09:59:17.883Z,24.74
2019-03-21T10:01:45.141Z,24.94
2019-03-21T10:04:12.337Z,23.69
2019-03-21T10:06:39.671Z,23.23
2019-03-21T10:09:07.070Z,23.76
2019-03-21T10:11:34.486Z,22.10
2019-03-21T10:14:01.793Z,22.21
2019-03-21T10:16:29.113Z,21.23
2019-03-21T10:18:56.262Z,23.97
2019-03-21T10:21:23.469Z,24.12
2019-03-21T10:23:50.631Z,24.17
2019-03-21T10:26:17.959Z,23.20
2019-03-21T10:28:45.153Z,23.73
2019-03-21T10:31:12.482Z,24.79
2019-03-21T10:33:39.778Z,25.32
2019-03-21T10:36:07.105Z,23.79
2019-03-21T10:38:34.298Z,23.05
2019-03-21T10:41:01.671Z,23.66
2019-03-21T10:43:28.991Z,23.52
2019-03-21T10:45:56.197Z,24.29
2019-03-21T10:48:23.673Z,25.84
2019-03-21T10:50:50.936Z,27.12
2019-03-21T10:53:18.143Z,27.02
2019-03-21T10:55:45.439Z,25.03
2019-03-21T10:58:13.681Z,25.04
2019-03-21T11:00:41.003Z,25.81
2019-03-21T11:03:08.282Z,25.50
2019-03-21T11:05:35.961Z,24.87
2019-03-21T11:08:03.291Z,24.72
2019-03-21T11:10:30.591Z,24.36
2019-03-21T11:12:58.045Z,25.31
2019-03-21T11:15:25.342Z,24.99
2019-03-21T11:17:53.854Z,25.61
2019-03-21T11:20:31.625Z,26.20
2019-03-21T11:22:58.993Z,26.88
2019-03-21T11:25:26.322Z,29.14
2019-03-21T11:27:53.705Z,29.30
2019-03-21T11:30:28.805Z,26.85
2019-03-21T11:32:56.036Z,26.91
2019-03-21T11:35:23.244Z,26.30
2019-03-21T11:37:50.515Z,26.27
2019-03-21T11:40:17.804Z,25.16
2019-03-21T11:42:44.924Z,25.88
2019-03-21T11:45:12.334Z,26.60
2019-03-21T11:47:42.098Z,29.53
2019-03-21T11:50:09.442Z,27.80
2019-03-21T11:52:36.698Z,27.14
2019-03-21T11:55:04.707Z,26.35
2019-03-21T11:57:32.049Z,25.29
2019-03-21T11:59:59.345Z,27.14
2019-03-21T12:02:27.550Z,29.66
2019-03-21T12:04:54.871Z,32.30
2019-03-21T12:07:22.238Z,29.42
2019-03-21T12:09:49.357Z,25.60
2019-03-21T12:12:16.588Z,27.90
2019-03-21T12:14:44.326Z,29.35
2019-03-21T12:17:12.838Z,29.43
2019-03-21T12:19:40.396Z,31.76
2019-03-21T12:22:07.723Z,30.32
2019-03-21T12:24:35.046Z,29.42
2019-03-21T12:27:02.363Z,30.50
2019-03-21T12:29:29.591Z,30.56
2019-03-21T12:31:56.860Z,29.02
2019-03-21T12:34:24.454Z,29.48
2019-03-21T12:36:51.753Z,27.85
2019-03-21T12:39:19.040Z,27.34
2019-03-21T12:41:46.344Z,28.26
2019-03-21T12:44:13.666Z,28.86
2019-03-21T12:46:40.975Z,26.68
2019-03-21T12:49:08.215Z,27.78
2019-03-21T12:51:35.666Z,27.80
2019-03-21T12:54:02.990Z,29.69
2019-03-21T12:56:30.205Z,31.06
2019-03-21T12:58:57.348Z,32.98
2019-03-21T13:01:24.636Z,31.82
2019-03-21T13:03:51.961Z,33.91
2019-03-21T13:06:19.273Z,30.94
2019-03-21T13:08:46.493Z,32.53
2019-03-21T13:11:13.868Z,31.60
2019-03-21T13:13:41.219Z,30.83
2019-03-21T13:16:08.563Z,33.34
2019-03-21T13:18:35.872Z,33.33
2019-03-21T13:21:03.221Z,30.54
2019-03-21T13:23:30.531Z,29.29
2019-03-21T13:25:57.769Z,27.15
2019-03-21T13:28:24.996Z,25.53
2019-03-21T13:30:52.204Z,26.90
2019-03-21T13:33:19.437Z,26.40
2019-03-21T13:35:46.765Z,29.54
2019-03-21T13:38:13.963Z,31.98
2019-03-21T13:40:41.089Z,30.64
2019-03-21T13:43:11.111Z,33.21
2019-03-21T13:45:37.586Z,32.58
2019-03-21T13:48:05.008Z,30.26
2019-03-21T13:50:32.335Z,31.17
2019-03-21T13:53:04.743Z,34.62
2019-03-21T13:55:28.846Z,35.64
2019-03-21T13:57:56.170Z,33.24
2019-03-21T14:00:23.402Z,34.78
2019-03-21T14:02:52.794Z,32.70
2019-03-21T14:05:20.124Z,32.05
2019-03-21T14:07:47.503Z,29.63
2019-03-21T14:10:14.914Z,32.86
2019-03-21T14:12:42.212Z,35.55
2019-03-21T14:15:10.030Z,36.56
2019-03-21T14:17:37.351Z,35.32
2019-03-21T14:20:05.535Z,36.40
2019-03-21T14:22:32.738Z,36.82
2019-03-21T14:24:59.964Z,31.99
2019-03-21T14:27:27.291Z,33.07
2019-03-21T14:30:01.236Z,29.13
2019-03-21T14:32:23.823Z,30.55
2019-03-21T14:34:51.093Z,30.30
2019-03-21T14:37:18.392Z,29.51
2019-03-21T14:39:45.642Z,30.70
2019-03-21T14:42:12.856Z,31.41
2019-03-21T14:44:40.085Z,32.45
2019-03-21T14:47:07.394Z,31.32
2019-03-21T14:49:35.569Z,30.41
2019-03-21T14:52:02.875Z,27.03
2019-03-21T14:54:30.103Z,25.80
2019-03-21T14:56:57.262Z,28.80
2019-03-21T14:59:24.575Z,30.83
2019-03-21T15:01:51.910Z,31.82
2019-03-21T15:04:19.109Z,32.03
2019-03-21T15:06:46.445Z,28.09
2019-03-21T15:09:13.748Z,26.43
2019-03-21T15:11:41.015Z,27.08
2019-03-21T15:14:08.169Z,27.70
2019-03-21T15:16:35.498Z,27.39
2019-03-21T15:19:02.865Z,27.28
2019-03-21T15:21:30.109Z,27.29
2019-03-21T15:23:59.725Z,27.36
2019-03-21T15:26:26.430Z,26.12
2019-03-21T15:28:53.616Z,25.35
2019-03-21T15:31:20.962Z,24.73
2019-03-21T15:33:48.320Z,27.17
2019-03-21T15:36:15.673Z,28.55
2019-03-21T15:38:42.912Z,27.63
2019-03-21T15:41:10.184Z,27.84
2019-03-21T15:43:37.477Z,26.95
2019-03-21T15:46:04.788Z,25.43
2019-03-21T15:48:32.101Z,24.46
2019-03-21T15:51:04.295Z,23.28
2019-03-21T15:53:28.526Z,24.95
2019-03-21T15:55:56.742Z,26.02
2019-03-21T15:58:26.199Z,26.00
2019-03-21T16:00:53.419Z,26.28
2019-03-21T16:03:20.625Z,24.46
2019-03-21T16:05:47.859Z,22.15
2019-03-21T16:08:15.067Z,22.24
2019-03-21T16:10:42.386Z,22.27
2019-03-21T16:13:09.703Z,22.60
2019-03-21T16:15:36.923Z,22.51
2019-03-21T16:18:04.491Z,23.70
2019-03-21T16:20:31.800Z,25.09
2019-03-21T16:22:59.094Z,25.23
2019-03-21T16:25:26.414Z,24.21
2019-03-21T16:27:53.720Z,23.15
2019-03-21T16:30:20.957Z,23.98
2019-03-21T16:32:48.279Z,24.88
2019-03-21T16:35:17.127Z,24.38
2019-03-21T16:37:44.339Z,23.63
2019-03-21T16:40:13.281Z,22.08
2019-03-21T16:42:40.661Z,21.48
2019-03-21T16:45:08.986Z,20.82
2019-03-21T16:47:36.327Z,20.28
2019-03-21T16:50:04.891Z,19.89
2019-03-21T16:52:32.122Z,19.64
2019-03-21T16:54:59.435Z,19.27
2019-03-21T16:57:26.671Z,18.94
2019-03-21T16:59:53.971Z,18.46
2019-03-21T17:02:21.200Z,18.39
2019-03-21T17:04:48.578Z,18.13
2019-03-21T17:07:15.954Z,18.03
2019-03-21T17:09:43.289Z,18.00
2019-03-21T17:12:10.668Z,17.86
2019-03-21T17:14:37.890Z,17.70
2019-03-21T17:17:05.105Z,17.44
2019-03-21T17:19:32.407Z,17.34
2019-03-21T17:21:59.718Z,17.00
2019-03-21T17:24:29.461Z,16.82
2019-03-21T17:26:56.140Z,16.61
2019-03-21T17:29:23.327Z,16.37
2019-03-21T17:31:50.659Z,16.12
2019-03-21T17:34:17.952Z,15.96
2019-03-21T17:36:45.277Z,15.74
2019-03-21T17:39:12.566Z,15.48
2019-03-21T17:41:39.889Z,15.21
2019-03-21T17:44:07.201Z,14.99
2019-03-21T17:46:34.411Z,14.80
2019-03-21T17:49:01.706Z,14.58
2019-03-21T17:51:28.920Z,14.41
2019-03-21T17:53:56.211Z,14.33
2019-03-21T17:56:23.529Z,14.26
2019-03-21T17:58:50.859Z,14.15
2019-03-21T18:01:18.173Z,14.13
2019-03-21T18:03:45.518Z,14.13
2019-03-21T18:06:12.819Z,14.01
2019-03-21T18:08:40.371Z,13.97
2019-03-21T18:11:07.656Z,13.84
2019-03-21T18:13:34.996Z,13.71
2019-03-21T18:16:02.343Z,13.57
2019-03-21T18:18:29.653Z,13.54
2019-03-21T18:20:56.993Z,13.38
2019-03-21T18:23:24.345Z,13.15
2019-03-21T18:25:51.648Z,13.05
2019-03-21T18:28:18.872Z,13.04
2019-03-21T18:30:46.215Z,12.97
2019-03-21T18:33:13.444Z,12.94
2019-03-21T18:35:41.071Z,12.95
2019-03-21T18:38:08.410Z,12.93
2019-03-21T18:40:40.016Z,13.19
2019-03-21T18:43:07.320Z,13.08
2019-03-21T18:45:34.571Z,13.01
2019-03-21T18:48:01.919Z,12.88
2019-03-21T18:50:29.223Z,12.67
2019-03-21T18:52:56.545Z,12.65
2019-03-21T18:55:23.843Z,12.56
2019-03-21T18:57:51.096Z,12.37
2019-03-21T19:00:18.531Z,12.30
2019-03-21T19:02:45.912Z,12.23
2019-03-21T19:05:13.313Z,12.18
2019-03-21T19:07:40.627Z,12.20
2019-03-21T19:10:09.861Z,12.09
2019-03-21T19:12:37.192Z,11.95
2019-03-21T19:15:05.865Z,11.78
2019-03-21T19:17:33.099Z,11.86
2019-03-21T19:20:00.478Z,11.91
2019-03-21T19:22:27.839Z,11.83
2019-03-21T19:24:55.041Z,11.62
2019-03-21T19:27:22.353Z,11.43
2019-03-21T19:29:49.686Z,11.55
2019-03-21T19:32:17.013Z,11.39
2019-03-21T19:34:44.238Z,11.23
2019-03-21T19:37:11.731Z,11.22
2019-03-21T19:39:39.050Z,11.32
2019-03-21T19:42:06.340Z,11.22
2019-03-21T19:44:33.656Z,11.07
2019-03-21T19:47:01.539Z,11.01
2019-03-21T19:49:28.965Z,10.99
2019-03-21T19:51:56.326Z,11.03
2019-03-21T19:54:23.625Z,10.99
2019-03-21T19:56:50.865Z,10.94
2019-03-21T19:59:18.199Z,10.92
2019-03-21T20:01:45.493Z,10.72
2019-03-21T20:04:12.754Z,10.67
2019-03-21T20:06:40.068Z,10.63
2019-03-21T20:09:07.296Z,10.67
2019-03-21T20:11:34.597Z,10.50
2019-03-21T20:14:04.000Z,10.42
2019-03-21T20:16:31.117Z,10.42
2019-03-21T20:18:58.331Z,10.34
2019-03-21T20:21:25.520Z,10.15
2019-03-21T20:23:52.735Z,10.07
2019-03-21T20:26:20.037Z,10.02
2019-03-21T20:28:47.248Z,10.16
2019-03-21T20:31:14.456Z,9.99
2019-03-21T20:34:01.031Z,9.98
2019-03-21T20:36:28.322Z,9.83
2019-03-21T20:38:55.644Z,9.71
2019-03-21T20:41:22.943Z,9.67
2019-03-21T20:43:50.256Z,9.73
2019-03-21T20:46:17.490Z,9.69
2019-03-21T20:48:43.363Z,9.70
2019-03-21T20:51:10.636Z,9.67
2019-03-21T20:53:37.970Z,9.62
2019-03-21T20:56:05.342Z,9.73
2019-03-21T20:58:32.563Z,9.87
2019-03-21T21:01:00.041Z,9.77
2019-03-21T21:03:27.322Z,9.57
2019-03-21T21:05:54.539Z,9.44
2019-03-21T21:08:21.751Z,9.36
2019-03-21T21:10:49.063Z,9.33
2019-03-21T21:13:16.259Z,9.22
2019-03-21T21:15:43.580Z,9.15
2019-03-21T21:18:10.905Z,9.16
2019-03-21T21:20:38.101Z,8.97
2019-03-21T21:23:05.396Z,9.31
2019-03-21T21:25:32.602Z,9.22
2019-03-21T21:27:59.808Z,9.09
2019-03-21T21:30:27.154Z,8.96
2019-03-21T21:32:54.356Z,8.93
2019-03-21T21:35:21.726Z,8.86
2019-03-21T21:37:49.011Z,8.82
2019-03-21T21:40:16.662Z,8.76
2019-03-21T21:42:43.973Z,8.81
2019-03-21T21:45:11.534Z,8.73
2019-03-21T21:47:38.841Z,8.59
2019-03-21T21:50:07.581Z,8.48
2019-03-21T21:52:41.827Z,8.43
2019-03-21T21:55:05.015Z,8.38
2019-03-21T21:57:32.347Z,8.40
2019-03-21T21:59:59.564Z,8.31
2019-03-21T22:02:26.765Z,8.29
2019-03-21T22:04:53.882Z,8.20
2019-03-21T22:07:21.068Z,8.16
2019-03-21T22:09:48.257Z,8.52
2019-03-21T22:12:15.606Z,8.36
2019-03-21T22:14:42.924Z,8.26
2019-03-21T22:17:10.266Z,8.13
2019-03-21T22:19:37.467Z,8.14
2019-03-21T22:22:04.754Z,8.12
2019-03-21T22:24:32.074Z,8.20
2019-03-21T22:26:59.302Z,8.20
2019-03-21T22:29:26.490Z,8.19
2019-03-21T22:31:53.804Z,8.20
2019-03-21T22:34:20.902Z,8.18
2019-03-21T22:36:49.583Z,8.06
2019-03-21T22:39:17.104Z,8.00
2019-03-21T22:41:44.418Z,7.97
2019-03-21T22:44:11.724Z,7.92
2019-03-21T22:46:38.983Z,8.16
2019-03-21T22:49:06.242Z,7.93
2019-03-21T22:51:33.565Z,7.88
2019-03-21T22:54:00.853Z,7.82
2019-03-21T22:56:28.201Z,7.76
2019-03-21T22:58:55.416Z,7.74
2019-03-21T23:01:22.731Z,7.70
2019-03-21T23:03:50.032Z,7.55
2019-03-21T23:06:17.343Z,7.44
2019-03-21T23:08:44.582Z,7.39
2019-03-21T23:11:11.807Z,7.42
2019-03-21T23:13:38.916Z,7.51
2019-03-21T23:16:06.201Z,7.60
2019-03-21T23:18:33.524Z,7.40
2019-03-21T23:21:00.739Z,7.34
2019-03-21T23:23:28.031Z,7.25
2019-03-21T23:25:55.241Z,7.24
2019-03-21T23:28:22.426Z,7.14
2019-03-21T23:30:49.741Z,7.06
2019-03-21T23:33:16.953Z,7.04
2019-03-21T23:35:44.189Z,7.01
2019-03-21T23:38:11.411Z,6.92
2019-03-21T23:40:38.598Z,6.94
2019-03-21T23:43:05.788Z,6.92
2019-03-21T23:45:33.108Z,6.96
2019-03-21T23:48:00.414Z,6.88
2019-03-21T23:50:27.647Z,6.91
2019-03-21T23:52:54.943Z,7.04
2019-03-21T23:55:22.250Z,6.94
2019-03-21T23:57:49.487Z,6.88
